METAR Analyzer

一覧表示

Hello, Guest. (Login)

RJSN/KIJ  -  新潟

観測日時
2022-09-30 06:00 (UTC) (64分前)
気温
24
露点
17
湿数
7
相対湿度
64.9%
QNH
1014hPa
推定現地気圧
1013.9hPa
推定海面気圧
1014.0hPa
体感温度
17
(無風時)
23.3
HI
24.2
気温前日比
±0
体感温度前日比
-0.3
HI前日比
+0.2
水平視程
>10000m
鉛直視程
データなし
雲底高度
No dense clouds
V/I
VMC (VFR)
RVR
No RVR data
卓越風
10kt from 20°
ガスト
No gust
降水
報告なし
その他の天気
報告なし
少しの雲 @ 4000ft AGL

RJSN 300600Z 02010KT 9999 FEW040 24/17 Q1014

RJSD/SDS  -  佐渡

No data in
2022-09-30 05:04 ~ 2022-09-30 07:04 (UTC)

RJNT/TOY  -  富山

観測日時
2022-09-30 06:00 (UTC) (64分前)
気温
26
露点
14
湿数
12
相対湿度
47.5%
QNH
1014hPa
推定現地気圧
1011.2hPa
推定海面気圧
1013.9hPa
体感温度
19.8
(無風時)
23.7
HI
25.9
気温前日比
+1
体感温度前日比
+0.6
HI前日比
+0.8
水平視程
>10000m
鉛直視程
データなし
雲底高度
No dense clouds
V/I
VMC (VFR)
RVR
No RVR data
卓越風
5kt from 350° (320° ~ 40°)
ガスト
No gust
降水
報告なし
その他の天気
報告なし
少しの雲 @ 2000ft AGL

RJNT 300600Z 35005KT 320V040 9999 FEW020 26/14 Q1014

RJNW/NTQ  -  能登

観測日時
2022-09-30 06:00 (UTC) (64分前)
気温
23
露点
19
湿数
4
相対湿度
78.2%
QNH
1015hPa
推定現地気圧
988.9hPa
推定海面気圧
1014.1hPa
体感温度
17.8
(無風時)
23.3
HI
23.4
気温前日比
±0
体感温度前日比
-0.1
HI前日比
-0.1
水平視程
>10000m
鉛直視程
データなし
雲底高度
No dense clouds
V/I
VMC (VFR)
RVR
No RVR data
卓越風
5kt from 110° (70° ~ 140°)
ガスト
No gust
降水
報告なし
その他の天気
報告なし
少しの雲 @ 2500ft AGL

RJNW 300600Z 11005KT 070V140 9999 FEW025 23/19 Q1015

RJNK/KMQ  -  小松

観測日時
2022-09-30 06:00 (UTC) (64分前)
気温
24
露点
18
湿数
6
相対湿度
69.2%
QNH
1015hPa
推定現地気圧
1014.2hPa
推定海面気圧
1015.0hPa
体感温度
17.9
(無風時)
23.6
HI
24.3
気温前日比
-1
体感温度前日比
+0.1
HI前日比
-0.8
水平視程
>10000m
鉛直視程
データなし
雲底高度
No dense clouds
V/I
VMC (VFR)
RVR
No RVR data
卓越風
7kt from 350° (310° ~ 20°)
ガスト
No gust
降水
報告なし
その他の天気
報告なし
少しの雲 @ 3000ft AGL

RJNK 300600Z 35007KT 310V020 9999 FEW030 24/18 Q1015

RJNF  -  福井

観測日時
2022-09-30 06:00 (UTC) (64分前)
気温
25
露点
17
湿数
8
相対湿度
61.2%
QNH
1014.9hPa
推定現地気圧
1014.3hPa
推定海面気圧
1014.9hPa
体感温度
18.5
(無風時)
23.9
HI
25.2
気温前日比
±0
体感温度前日比
+0.5
HI前日比
±0
水平視程
>10000m
鉛直視程
データなし
雲底高度
No dense clouds
V/I
VMC (VFR)
RVR
No RVR data
卓越風
8kt from 350°
ガスト
No gust
降水
報告なし
その他の天気
報告なし
少しの雲 @ 3000ft AGL

RJNF 300600Z 35008KT 9999 FEW030 25/17 Q1014 RMK A2997

RJAF/MMJ  -  松本

観測日時
2022-09-30 06:00 (UTC) (64分前)
気温
25
露点
9
湿数
16
相対湿度
36.2%
QNH
1016hPa
推定現地気圧
939.3hPa
推定海面気圧
1012.1hPa
体感温度
19
(無風時)
22.4
HI
24.5
気温前日比
+1
体感温度前日比
+3.2
HI前日比
+1.3
水平視程
>10000m
鉛直視程
データなし
雲底高度
No dense clouds
V/I
VMC (VFR)
RVR
No RVR data
卓越風
3kt from 350° (300° ~ 30°)
ガスト
No gust
降水
報告なし
その他の天気
報告なし
少しの雲 @ 5000ft AGL

RJAF 300600Z 35003KT 300V030 9999 FEW050 25/09 Q1016

239.9msec